createdAt,value
2016-09-29T00:00:07.563Z,91.31
2016-09-29T00:01:08.114Z,91.17
2016-09-29T00:02:07.594Z,91.31
2016-09-29T00:03:08.166Z,91.28
2016-09-29T00:04:07.715Z,91.08
2016-09-29T00:05:08.317Z,90.65
2016-09-29T00:06:07.872Z,90.53
2016-09-29T00:07:08.339Z,90.71
2016-09-29T00:08:07.872Z,91.34
2016-09-29T00:09:08.444Z,91.42
2016-09-29T00:10:08.047Z,91.65
2016-09-29T00:11:07.610Z,91.25
2016-09-29T00:12:08.114Z,91.72
2016-09-29T00:13:07.762Z,92.44
2016-09-29T00:14:08.425Z,92.13
2016-09-29T00:15:08.051Z,91.53
2016-09-29T00:16:07.621Z,91.11
2016-09-29T00:17:08.299Z,90.93
2016-09-29T00:18:07.849Z,91.13
2016-09-29T00:19:08.526Z,91.70
2016-09-29T00:20:08.099Z,91.56
2016-09-29T00:21:07.645Z,91.19
2016-09-29T00:22:08.143Z,90.77
2016-09-29T00:23:07.614Z,90.66
2016-09-29T00:24:08.087Z,90.63
2016-09-29T00:25:07.623Z,90.59
2016-09-29T00:26:08.090Z,90.35
2016-09-29T00:27:07.573Z,90.37
2016-09-29T00:28:08.151Z,90.28
2016-09-29T00:29:07.724Z,90.65
2016-09-29T00:30:08.332Z,90.92
2016-09-29T00:31:07.902Z,91.30
2016-09-29T00:32:08.484Z,91.62
2016-09-29T00:33:08.055Z,91.15
2016-09-29T00:34:07.646Z,91.16
2016-09-29T00:35:08.243Z,91.61
2016-09-29T00:36:13.278Z,91.35
2016-09-29T00:37:07.885Z,91.67
2016-09-29T00:38:08.428Z,91.38
2016-09-29T00:39:07.925Z,91.13
2016-09-29T00:40:14.193Z,91.08
2016-09-29T00:41:07.651Z,90.99
2016-09-29T00:42:08.192Z,91.12
2016-09-29T00:43:07.679Z,91.37
2016-09-29T00:44:08.204Z,90.73
2016-09-29T00:45:07.740Z,91.01
2016-09-29T00:46:08.288Z,91.09
2016-09-29T00:47:07.850Z,91.61
2016-09-29T00:48:08.373Z,91.21
2016-09-29T00:49:07.859Z,91.21
2016-09-29T00:50:08.431Z,91.33
2016-09-29T00:51:07.977Z,91.17
2016-09-29T00:52:07.409Z,91.29
2016-09-29T00:53:08.024Z,91.31
2016-09-29T00:54:07.583Z,91.31
2016-09-29T00:55:08.011Z,90.97
2016-09-29T00:56:07.577Z,90.76
2016-09-29T00:57:08.113Z,90.94
2016-09-29T00:58:08.351Z,91.04
2016-09-29T00:59:07.830Z,90.93
2016-09-29T01:00:08.394Z,91.14
2016-09-29T01:01:07.956Z,90.96
2016-09-29T01:02:07.443Z,90.73
2016-09-29T01:03:08.482Z,90.82
2016-09-29T01:04:08.034Z,90.80
2016-09-29T01:05:08.359Z,90.78
2016-09-29T01:06:07.624Z,90.69
2016-09-29T01:07:08.424Z,91.01
2016-09-29T01:08:07.883Z,91.23
2016-09-29T01:09:08.381Z,91.23
2016-09-29T01:10:08.209Z,91.13
2016-09-29T01:11:07.454Z,91.35
2016-09-29T01:12:07.974Z,91.33
2016-09-29T01:13:07.540Z,91.60
2016-09-29T01:14:08.162Z,91.36
2016-09-29T01:15:08.358Z,91.56
2016-09-29T01:16:07.918Z,91.06
2016-09-29T01:17:08.691Z,90.93
2016-09-29T01:18:07.749Z,91.18
2016-09-29T01:19:08.209Z,91.83
2016-09-29T01:20:07.500Z,91.80
2016-09-29T01:21:08.075Z,92.18
2016-09-29T01:22:08.229Z,91.78
2016-09-29T01:23:07.784Z,91.58
2016-09-29T01:24:08.074Z,91.33
2016-09-29T01:25:07.932Z,91.04
2016-09-29T01:26:08.445Z,90.90
2016-09-29T01:27:08.059Z,90.76
2016-09-29T01:28:07.673Z,90.90
2016-09-29T01:29:07.594Z,91.06
2016-09-29T01:30:08.194Z,91.14
2016-09-29T01:31:08.023Z,91.67
2016-09-29T01:32:07.664Z,91.31
2016-09-29T01:33:08.195Z,91.91
2016-09-29T01:34:07.951Z,91.95
2016-09-29T01:35:07.405Z,92.17
2016-09-29T01:36:07.951Z,91.88
2016-09-29T01:37:07.485Z,92.11
2016-09-29T01:38:08.019Z,91.27
2016-09-29T01:39:07.512Z,91.11
2016-09-29T01:40:08.072Z,90.74
2016-09-29T01:41:07.572Z,90.38
2016-09-29T01:42:08.122Z,90.59
2016-09-29T01:43:07.739Z,90.47
2016-09-29T01:44:08.264Z,90.19
2016-09-29T01:45:07.792Z,89.95
2016-09-29T01:46:07.972Z,90.25
2016-09-29T01:47:07.513Z,90.28
2016-09-29T01:48:07.992Z,91.02
2016-09-29T01:49:07.606Z,90.46
2016-09-29T01:50:08.169Z,90.42
2016-09-29T01:51:07.663Z,90.23
2016-09-29T01:52:08.230Z,90.34
2016-09-29T01:53:07.691Z,90.32
2016-09-29T01:54:08.240Z,90.29
2016-09-29T01:55:07.731Z,91.07
2016-09-29T01:56:07.653Z,91.12
2016-09-29T01:57:08.393Z,90.59
2016-09-29T01:58:07.947Z,90.20
2016-09-29T01:59:07.483Z,90.02
2016-09-29T02:00:08.044Z,90.37
2016-09-29T02:01:07.614Z,90.07
2016-09-29T02:02:08.163Z,90.34
2016-09-29T02:03:07.584Z,90.70
2016-09-29T02:04:08.061Z,90.75
2016-09-29T02:05:07.785Z,90.54
2016-09-29T02:06:08.394Z,90.98
2016-09-29T02:07:08.229Z,90.92
2016-09-29T02:08:07.771Z,91.09
2016-09-29T02:09:08.292Z,91.45
2016-09-29T02:10:07.924Z,91.44
2016-09-29T02:11:08.479Z,91.34
2016-09-29T02:12:08.053Z,91.79
2016-09-29T02:13:07.584Z,92.08
2016-09-29T02:14:08.141Z,92.61
2016-09-29T02:15:07.755Z,92.44
2016-09-29T02:16:08.328Z,92.62
2016-09-29T02:17:08.385Z,92.68
2016-09-29T02:18:13.672Z,92.43
2016-09-29T02:19:08.214Z,92.84
2016-09-29T02:20:08.023Z,92.60
2016-09-29T02:21:07.650Z,92.67
2016-09-29T02:22:08.313Z,92.78
2016-09-29T02:23:07.879Z,92.83
2016-09-29T02:24:08.383Z,93.38
2016-09-29T02:25:07.915Z,93.14
2016-09-29T02:26:08.483Z,92.98
2016-09-29T02:27:08.037Z,92.90
2016-09-29T02:28:07.553Z,93.34
2016-09-29T02:29:08.190Z,93.00
2016-09-29T02:30:07.669Z,92.73
2016-09-29T02:31:08.270Z,92.80
2016-09-29T02:32:07.854Z,93.04
2016-09-29T02:33:08.373Z,93.01
2016-09-29T02:34:07.832Z,93.29
2016-09-29T02:35:08.631Z,93.15
2016-09-29T02:36:08.226Z,93.43
2016-09-29T02:37:07.765Z,93.26
2016-09-29T02:38:08.324Z,93.47
2016-09-29T02:39:07.824Z,93.57
2016-09-29T02:40:08.420Z,93.81
2016-09-29T02:41:08.035Z,93.72
2016-09-29T02:42:07.702Z,93.51
2016-09-29T02:43:08.213Z,93.45
2016-09-29T02:44:07.750Z,93.40
2016-09-29T02:45:08.349Z,93.88
2016-09-29T02:46:07.903Z,93.88
2016-09-29T02:47:08.503Z,94.30
2016-09-29T02:48:08.000Z,94.38
2016-09-29T02:49:07.537Z,94.14
2016-09-29T02:50:08.006Z,93.91
2016-09-29T02:51:13.105Z,93.98
2016-09-29T02:52:07.695Z,94.60
2016-09-29T02:53:08.186Z,94.19
2016-09-29T02:54:08.031Z,94.17
2016-09-29T02:55:07.606Z,94.16
2016-09-29T02:56:08.110Z,93.43
2016-09-29T02:57:07.608Z,93.52
2016-09-29T02:58:08.153Z,93.41
2016-09-29T02:59:07.693Z,93.04
2016-09-29T03:00:08.194Z,93.48
2016-09-29T03:01:07.721Z,93.73
2016-09-29T03:02:08.257Z,93.78
2016-09-29T03:03:07.880Z,93.82
2016-09-29T03:04:08.354Z,93.33
2016-09-29T03:05:08.067Z,93.48
2016-09-29T03:06:07.501Z,93.61
2016-09-29T03:07:08.091Z,93.76
2016-09-29T03:08:07.699Z,93.92
2016-09-29T03:09:08.369Z,94.04
2016-09-29T03:10:07.982Z,94.08
2016-09-29T03:11:07.508Z,93.59
2016-09-29T03:12:08.060Z,93.37
2016-09-29T03:13:07.584Z,93.46
2016-09-29T03:14:08.091Z,93.64
2016-09-29T03:15:07.563Z,93.88
2016-09-29T03:16:08.062Z,94.15
2016-09-29T03:17:07.710Z,94.37
2016-09-29T03:18:08.245Z,94.27
2016-09-29T03:19:07.779Z,94.00
2016-09-29T03:20:08.259Z,94.15
2016-09-29T03:21:07.802Z,94.23
2016-09-29T03:22:08.351Z,94.21
2016-09-29T03:23:07.873Z,93.88
2016-09-29T03:24:08.477Z,93.92
2016-09-29T03:25:08.237Z,93.69
2016-09-29T03:26:07.740Z,93.49
2016-09-29T03:27:08.372Z,93.09
2016-09-29T03:28:07.986Z,92.66
2016-09-29T03:29:07.401Z,92.60
2016-09-29T03:30:07.769Z,92.59
2016-09-29T03:31:08.250Z,92.63
2016-09-29T03:32:07.855Z,92.22
2016-09-29T03:33:08.392Z,91.97
2016-09-29T03:34:07.991Z,92.34
2016-09-29T03:35:07.525Z,92.37
2016-09-29T03:36:08.088Z,92.83
2016-09-29T03:37:07.730Z,92.42
2016-09-29T03:38:08.386Z,91.71
2016-09-29T03:39:07.909Z,91.84
2016-09-29T03:40:08.446Z,91.79
2016-09-29T03:41:07.949Z,92.55
2016-09-29T03:42:07.546Z,92.66
2016-09-29T03:43:08.210Z,92.73
2016-09-29T03:44:07.721Z,92.72
2016-09-29T03:45:08.221Z,93.36
2016-09-29T03:46:07.701Z,92.97
2016-09-29T03:47:08.209Z,92.98
2016-09-29T03:48:07.727Z,93.16
2016-09-29T03:49:08.328Z,93.09
2016-09-29T03:50:07.873Z,93.68
2016-09-29T03:51:08.428Z,93.28
2016-09-29T03:52:07.912Z,93.33
2016-09-29T03:53:08.492Z,92.88
2016-09-29T03:54:07.987Z,92.71
2016-09-29T03:55:07.443Z,92.60
2016-09-29T03:56:08.093Z,93.06
2016-09-29T03:57:07.909Z,92.85
2016-09-29T03:58:08.512Z,92.82
2016-09-29T03:59:08.037Z,93.11
2016-09-29T04:00:07.610Z,93.14
2016-09-29T04:01:08.220Z,93.34
2016-09-29T04:02:07.729Z,93.01
2016-09-29T04:03:08.329Z,93.63
2016-09-29T04:04:07.830Z,93.91
2016-09-29T04:05:08.322Z,93.63
2016-09-29T04:06:07.824Z,93.02
2016-09-29T04:07:08.391Z,92.71
2016-09-29T04:08:07.826Z,93.05
2016-09-29T04:09:08.459Z,93.26
2016-09-29T04:10:07.976Z,93.50
2016-09-29T04:11:07.492Z,93.34
2016-09-29T04:12:07.987Z,93.66
2016-09-29T04:13:07.499Z,93.62
2016-09-29T04:14:07.974Z,93.74
2016-09-29T04:15:07.545Z,93.71
2016-09-29T04:16:08.188Z,93.64
2016-09-29T04:17:07.830Z,93.97
2016-09-29T04:18:08.377Z,93.71
2016-09-29T04:19:07.957Z,93.65
2016-09-29T04:20:07.410Z,94.04
2016-09-29T04:21:08.020Z,94.13
2016-09-29T04:22:07.483Z,93.89
2016-09-29T04:23:07.971Z,93.91
2016-09-29T04:24:07.433Z,94.08
2016-09-29T04:25:10.908Z,94.13
2016-09-29T04:26:08.358Z,93.45
2016-09-29T04:27:07.853Z,93.74
2016-09-29T04:28:08.433Z,93.70
2016-09-29T04:29:08.026Z,93.91
2016-09-29T04:30:07.601Z,93.76
2016-09-29T04:31:08.270Z,93.83
2016-09-29T04:32:07.792Z,93.67
2016-09-29T04:33:08.351Z,93.02
2016-09-29T04:34:07.829Z,92.85
2016-09-29T04:35:08.427Z,92.95
2016-09-29T04:36:07.867Z,93.00
2016-09-29T04:37:08.403Z,93.03
2016-09-29T04:38:07.968Z,93.74
2016-09-29T04:39:07.464Z,93.87
2016-09-29T04:40:08.002Z,94.18
2016-09-29T04:41:13.110Z,94.67
2016-09-29T04:42:07.707Z,94.01
2016-09-29T04:43:08.351Z,93.74
2016-09-29T04:44:07.930Z,93.76
2016-09-29T04:45:08.570Z,93.34
2016-09-29T04:46:08.194Z,92.46
2016-09-29T04:47:07.761Z,91.66
2016-09-29T04:48:08.299Z,91.35
2016-09-29T04:49:07.844Z,91.44
2016-09-29T04:50:08.429Z,91.07
2016-09-29T04:51:07.970Z,90.99
2016-09-29T04:52:07.418Z,91.04
2016-09-29T04:53:07.951Z,90.97
2016-09-29T04:54:07.542Z,91.30
2016-09-29T04:55:08.141Z,91.47
2016-09-29T04:56:07.727Z,92.05
2016-09-29T04:57:08.218Z,91.99
2016-09-29T04:58:07.793Z,91.57
2016-09-29T04:59:08.379Z,91.53
2016-09-29T05:00:07.931Z,90.95
2016-09-29T05:01:08.490Z,91.06
2016-09-29T05:02:08.052Z,91.16
2016-09-29T05:03:07.602Z,90.23
2016-09-29T05:04:08.086Z,89.62
2016-09-29T05:05:07.915Z,89.84
2016-09-29T05:06:08.541Z,89.70
2016-09-29T05:07:08.091Z,89.88
2016-09-29T05:08:07.591Z,89.43
2016-09-29T05:09:08.120Z,89.28
2016-09-29T05:10:07.692Z,89.34
2016-09-29T05:11:08.214Z,88.95
2016-09-29T05:12:07.753Z,88.45
2016-09-29T05:13:08.355Z,88.92
2016-09-29T05:14:07.935Z,89.07
2016-09-29T05:15:07.474Z,88.73
2016-09-29T05:16:08.042Z,89.22
2016-09-29T05:17:07.683Z,89.27
2016-09-29T05:18:08.299Z,89.46
2016-09-29T05:19:07.826Z,89.01
2016-09-29T05:20:08.373Z,89.71
2016-09-29T05:21:07.919Z,90.26
2016-09-29T05:22:08.482Z,90.29
2016-09-29T05:23:08.080Z,90.43
2016-09-29T05:24:07.672Z,89.84
2016-09-29T05:25:07.483Z,90.03
2016-09-29T05:26:08.014Z,90.51
2016-09-29T05:27:07.473Z,90.31
2016-09-29T05:28:13.564Z,90.38
2016-09-29T05:29:08.174Z,90.59
2016-09-29T05:30:07.704Z,90.55
2016-09-29T05:31:08.182Z,90.62
2016-09-29T05:32:07.658Z,90.44
2016-09-29T05:33:08.221Z,90.43
2016-09-29T05:34:09.018Z,90.47
2016-09-29T05:35:08.570Z,90.36
2016-09-29T05:36:09.819Z,90.83
2016-09-29T05:37:08.338Z,90.58
2016-09-29T05:38:07.813Z,90.70
2016-09-29T05:39:08.511Z,90.33
2016-09-29T05:40:08.104Z,91.09
2016-09-29T05:41:14.210Z,90.41
2016-09-29T05:42:29.187Z,90.32
2016-09-29T05:43:09.774Z,90.03
2016-09-29T05:44:46.023Z,89.91
2016-09-29T05:45:16.796Z,90.75
2016-09-29T05:46:07.578Z,90.53
2016-09-29T05:47:08.136Z,90.67
2016-09-29T05:48:07.697Z,90.34
2016-09-29T05:49:08.210Z,90.81
2016-09-29T05:50:07.787Z,90.95
2016-09-29T05:51:08.472Z,90.67
2016-09-29T05:52:07.981Z,89.54
2016-09-29T05:53:07.484Z,89.30
2016-09-29T05:54:07.999Z,89.96
2016-09-29T05:55:07.461Z,90.00
2016-09-29T05:56:08.043Z,89.95
2016-09-29T05:57:07.612Z,90.14
2016-09-29T05:58:08.191Z,90.32
2016-09-29T05:59:07.729Z,90.64
2016-09-29T06:00:08.242Z,91.42
2016-09-29T06:01:08.117Z,91.35
2016-09-29T06:02:07.623Z,91.21
2016-09-29T06:03:08.273Z,90.64
2016-09-29T06:04:07.825Z,91.03
2016-09-29T06:05:08.380Z,91.03
2016-09-29T06:06:08.044Z,90.89
2016-09-29T06:07:07.506Z,89.75
2016-09-29T06:08:08.091Z,89.90
2016-09-29T06:09:07.765Z,90.62
2016-09-29T06:10:08.272Z,90.21
2016-09-29T06:11:07.813Z,90.12
2016-09-29T06:12:08.359Z,91.30
2016-09-29T06:13:07.897Z,90.61
2016-09-29T06:14:08.473Z,91.11
2016-09-29T06:15:08.092Z,90.44
2016-09-29T06:16:07.556Z,90.39
2016-09-29T06:17:07.698Z,90.46
2016-09-29T06:18:08.329Z,90.61
2016-09-29T06:19:07.814Z,90.99
2016-09-29T06:20:08.393Z,90.75
2016-09-29T06:21:07.992Z,90.93
2016-09-29T06:22:07.551Z,90.19
2016-09-29T06:23:08.050Z,91.26
2016-09-29T06:24:07.508Z,90.59
2016-09-29T06:25:08.104Z,90.26
2016-09-29T06:26:07.698Z,90.38
2016-09-29T06:27:08.222Z,90.76
2016-09-29T06:28:07.845Z,90.71
2016-09-29T06:29:08.388Z,90.00
2016-09-29T06:30:07.930Z,90.20
2016-09-29T06:31:08.511Z,89.91
2016-09-29T06:32:08.024Z,89.60
2016-09-29T06:33:07.492Z,90.31
2016-09-29T06:34:07.971Z,89.38
2016-09-29T06:35:07.463Z,89.17
2016-09-29T06:36:07.923Z,89.95
2016-09-29T06:37:08.497Z,89.19
2016-09-29T06:38:08.116Z,89.14
2016-09-29T06:39:07.633Z,89.18
2016-09-29T06:40:08.249Z,89.17
2016-09-29T06:41:07.789Z,89.01
2016-09-29T06:42:08.332Z,88.66
2016-09-29T06:43:07.921Z,88.83
2016-09-29T06:44:08.469Z,87.76
2016-09-29T06:45:08.070Z,87.43
2016-09-29T06:46:07.633Z,88.30
2016-09-29T06:47:08.173Z,89.28
2016-09-29T06:48:07.775Z,88.60
2016-09-29T06:49:08.332Z,87.87
2016-09-29T06:50:07.854Z,88.25
2016-09-29T06:51:08.366Z,88.39
2016-09-29T06:52:07.860Z,88.79
2016-09-29T06:53:08.389Z,87.86
2016-09-29T06:54:07.875Z,88.81
2016-09-29T06:55:08.484Z,88.47
2016-09-29T06:56:07.944Z,87.92
2016-09-29T06:57:07.482Z,87.95
2016-09-29T06:58:07.993Z,87.40
2016-09-29T06:59:07.454Z,87.70
2016-09-29T07:00:08.130Z,89.02
2016-09-29T07:01:07.629Z,87.77
2016-09-29T07:02:08.181Z,87.85
2016-09-29T07:03:07.694Z,86.84
2016-09-29T07:04:08.243Z,87.64
2016-09-29T07:05:07.711Z,87.65
2016-09-29T07:06:08.276Z,86.43
2016-09-29T07:07:07.774Z,86.66
2016-09-29T07:08:08.343Z,86.23
2016-09-29T07:09:07.926Z,86.31
2016-09-29T07:10:08.475Z,85.62
2016-09-29T07:11:08.058Z,85.83
2016-09-29T07:12:07.646Z,85.87
2016-09-29T07:13:08.277Z,88.57
2016-09-29T07:14:14.961Z,87.18
2016-09-29T07:15:07.492Z,86.18
2016-09-29T07:16:08.073Z,85.87
2016-09-29T07:17:07.707Z,84.64
2016-09-29T07:18:08.295Z,83.51
2016-09-29T07:19:07.873Z,83.68
2016-09-29T07:20:08.420Z,80.93
2016-09-29T07:21:08.038Z,80.31
2016-09-29T07:22:07.640Z,81.11
2016-09-29T07:23:08.191Z,81.60
2016-09-29T07:24:07.826Z,82.28
2016-09-29T07:25:08.467Z,83.98
2016-09-29T07:26:08.073Z,85.20
2016-09-29T07:27:07.661Z,84.36
2016-09-29T07:28:08.213Z,80.12
2016-09-29T07:29:07.727Z,78.51
2016-09-29T07:30:08.308Z,80.42
2016-09-29T07:31:07.834Z,80.40
2016-09-29T07:32:08.497Z,80.30
2016-09-29T07:33:08.052Z,80.44
2016-09-29T07:34:07.615Z,78.87
2016-09-29T07:35:08.188Z,80.96
2016-09-29T07:36:07.838Z,81.56
2016-09-29T07:37:08.467Z,78.28
2016-09-29T07:38:08.005Z,79.64
2016-09-29T07:39:07.649Z,80.50
2016-09-29T07:40:08.287Z,80.29
2016-09-29T07:41:07.885Z,79.69
2016-09-29T07:42:08.415Z,80.53
2016-09-29T07:43:07.889Z,80.81
2016-09-29T07:44:08.421Z,80.99
2016-09-29T07:45:07.892Z,81.16
2016-09-29T07:46:08.429Z,79.04
2016-09-29T07:47:08.026Z,78.08
2016-09-29T07:48:07.622Z,77.53
2016-09-29T07:49:08.152Z,77.56
2016-09-29T07:50:07.655Z,78.36
2016-09-29T07:51:08.304Z,78.75
2016-09-29T07:52:07.946Z,81.09
2016-09-29T07:53:07.540Z,78.12
2016-09-29T07:54:08.042Z,77.61
2016-09-29T07:55:07.563Z,77.31
2016-09-29T07:56:08.006Z,76.88
2016-09-29T07:57:07.485Z,77.60
2016-09-29T07:58:08.036Z,76.70
2016-09-29T07:59:07.578Z,75.88
2016-09-29T08:00:08.078Z,75.67
2016-09-29T08:01:07.682Z,76.01
2016-09-29T08:02:08.280Z,73.54
2016-09-29T08:03:07.854Z,74.43
2016-09-29T08:04:08.443Z,74.71
2016-09-29T08:05:08.143Z,76.26
2016-09-29T08:06:07.635Z,75.73
2016-09-29T08:07:08.278Z,75.37
2016-09-29T08:08:07.776Z,74.43
2016-09-29T08:09:08.478Z,73.94
2016-09-29T08:10:08.003Z,75.02
2016-09-29T08:11:07.421Z,74.63
2016-09-29T08:12:08.465Z,75.01
2016-09-29T08:13:08.050Z,73.48
2016-09-29T08:14:07.546Z,72.50
2016-09-29T08:15:08.034Z,72.94
2016-09-29T08:16:07.569Z,74.11
2016-09-29T08:17:08.197Z,73.84
2016-09-29T08:18:07.759Z,73.48
2016-09-29T08:19:08.252Z,73.15
2016-09-29T08:20:07.847Z,73.95
2016-09-29T08:21:08.429Z,72.69
2016-09-29T08:22:08.063Z,73.17
2016-09-29T08:23:07.607Z,73.42
2016-09-29T08:24:08.200Z,72.64
2016-09-29T08:25:07.679Z,71.11
2016-09-29T08:26:08.259Z,71.07
2016-09-29T08:27:07.810Z,71.77
2016-09-29T08:28:08.408Z,71.79
2016-09-29T08:29:07.908Z,71.60
2016-09-29T08:30:08.482Z,70.95
2016-09-29T08:31:07.985Z,71.63
2016-09-29T08:32:07.480Z,71.72
2016-09-29T08:33:08.079Z,71.98
2016-09-29T08:34:07.599Z,72.73
2016-09-29T08:35:08.129Z,73.11
2016-09-29T08:36:07.659Z,72.63
2016-09-29T08:37:08.135Z,72.91
2016-09-29T08:38:07.707Z,71.64
2016-09-29T08:39:08.169Z,71.46
2016-09-29T08:40:07.686Z,70.45
2016-09-29T08:41:08.191Z,71.00
2016-09-29T08:42:07.669Z,70.71
2016-09-29T08:43:08.230Z,70.25
2016-09-29T08:44:07.699Z,69.71
2016-09-29T08:45:08.255Z,69.49
2016-09-29T08:46:07.833Z,69.47
2016-09-29T08:47:08.458Z,70.11
2016-09-29T08:48:07.949Z,69.32
2016-09-29T08:49:07.545Z,68.91
2016-09-29T08:50:08.089Z,68.08
2016-09-29T08:51:07.693Z,67.78
2016-09-29T08:52:08.330Z,67.31
2016-09-29T08:53:07.800Z,67.94
2016-09-29T08:54:08.312Z,66.01
2016-09-29T08:55:07.860Z,65.52
2016-09-29T08:56:08.408Z,66.15
2016-09-29T08:57:08.004Z,66.48
2016-09-29T08:58:07.487Z,66.22
2016-09-29T08:59:08.009Z,66.43
2016-09-29T09:00:07.530Z,64.09
2016-09-29T09:01:08.067Z,63.44
2016-09-29T09:02:07.623Z,62.82
2016-09-29T09:03:08.105Z,62.54
2016-09-29T09:04:07.626Z,62.93
2016-09-29T09:05:08.171Z,62.83
2016-09-29T09:06:07.762Z,62.64
2016-09-29T09:07:08.360Z,62.10
2016-09-29T09:08:07.941Z,62.49
2016-09-29T09:09:07.427Z,61.73
2016-09-29T09:10:07.960Z,61.18
2016-09-29T09:11:07.557Z,60.70
2016-09-29T09:12:08.181Z,61.56
2016-09-29T09:13:07.865Z,61.72
2016-09-29T09:14:08.436Z,62.17
2016-09-29T09:15:07.995Z,61.31
2016-09-29T09:16:07.531Z,60.53
2016-09-29T09:17:08.159Z,60.14
2016-09-29T09:18:07.770Z,60.56
2016-09-29T09:19:08.331Z,59.56
2016-09-29T09:20:07.823Z,59.66
2016-09-29T09:21:08.385Z,58.91
2016-09-29T09:22:07.864Z,59.29
2016-09-29T09:23:08.485Z,59.86
2016-09-29T09:24:08.088Z,59.82
2016-09-29T09:25:07.677Z,59.87
2016-09-29T09:26:08.255Z,59.90
2016-09-29T09:27:07.946Z,59.99
2016-09-29T09:28:07.512Z,59.94
2016-09-29T09:29:08.076Z,59.42
2016-09-29T09:30:07.664Z,59.24
2016-09-29T09:31:08.119Z,60.23
2016-09-29T09:32:08.293Z,61.48
2016-09-29T09:33:07.897Z,61.67
2016-09-29T09:34:08.476Z,61.16
2016-09-29T09:35:07.972Z,61.17
2016-09-29T09:36:07.459Z,61.09
2016-09-29T09:37:08.031Z,61.20
2016-09-29T09:38:07.617Z,61.38
2016-09-29T09:39:08.224Z,62.15
2016-09-29T09:40:07.846Z,61.31
2016-09-29T09:41:08.460Z,61.12
2016-09-29T09:42:08.002Z,60.88
2016-09-29T09:43:07.479Z,60.71
2016-09-29T09:44:08.025Z,60.82
2016-09-29T09:45:07.504Z,60.31
2016-09-29T09:46:08.131Z,60.46
2016-09-29T09:47:08.256Z,60.09
2016-09-29T09:48:07.848Z,61.14
2016-09-29T09:49:08.413Z,59.13
2016-09-29T09:50:07.953Z,60.24
2016-09-29T09:51:07.421Z,60.74
2016-09-29T09:52:08.005Z,60.43
2016-09-29T09:53:07.527Z,61.04
2016-09-29T09:54:08.118Z,60.24
2016-09-29T09:55:07.671Z,60.67
2016-09-29T09:56:08.324Z,61.42
2016-09-29T09:57:07.922Z,61.20
2016-09-29T09:58:08.510Z,61.08
2016-09-29T09:59:08.105Z,60.21
2016-09-29T10:00:07.616Z,60.27
2016-09-29T10:01:08.122Z,60.83
2016-09-29T10:02:07.665Z,59.55
2016-09-29T10:03:18.131Z,59.49
2016-09-29T10:04:07.713Z,57.46
2016-09-29T10:05:08.301Z,57.72
2016-09-29T10:06:07.845Z,59.73
2016-09-29T10:07:08.457Z,58.75
2016-09-29T10:08:07.997Z,58.44
2016-09-29T10:09:07.533Z,58.93
2016-09-29T10:10:08.115Z,59.32
2016-09-29T10:11:07.706Z,59.51
2016-09-29T10:12:08.326Z,57.79
2016-09-29T10:13:08.072Z,58.83
2016-09-29T10:14:08.207Z,58.50
2016-09-29T10:15:07.700Z,58.27
2016-09-29T10:16:08.268Z,58.89
2016-09-29T10:17:07.996Z,58.74
2016-09-29T10:18:07.544Z,58.28
2016-09-29T10:19:08.136Z,56.47
2016-09-29T10:20:07.663Z,57.81
2016-09-29T10:21:08.227Z,58.23
2016-09-29T10:22:07.783Z,57.72
2016-09-29T10:23:08.366Z,57.64
2016-09-29T10:24:07.981Z,58.53
2016-09-29T10:25:07.534Z,58.34
2016-09-29T10:26:08.124Z,56.57
2016-09-29T10:27:07.752Z,56.38
2016-09-29T10:28:08.275Z,56.40
2016-09-29T10:29:07.932Z,55.60
2016-09-29T10:30:08.517Z,56.37
2016-09-29T10:31:08.017Z,57.12
2016-09-29T10:32:07.507Z,56.28
2016-09-29T10:33:08.148Z,57.25
2016-09-29T10:34:07.690Z,57.56
2016-09-29T10:35:07.847Z,56.39
2016-09-29T10:36:08.542Z,56.76
2016-09-29T10:37:08.176Z,56.66
2016-09-29T10:38:07.633Z,56.60
2016-09-29T10:39:08.284Z,56.70
2016-09-29T10:40:07.802Z,56.70
2016-09-29T10:41:08.314Z,57.31
2016-09-29T10:42:07.815Z,57.71
2016-09-29T10:43:08.314Z,57.78
2016-09-29T10:44:07.865Z,56.01
2016-09-29T10:45:08.480Z,56.30
2016-09-29T10:46:07.998Z,56.49
2016-09-29T10:47:07.556Z,56.22
2016-09-29T10:48:08.083Z,56.20
2016-09-29T10:49:07.685Z,53.51
2016-09-29T10:50:08.229Z,54.95
2016-09-29T10:51:07.846Z,55.42
2016-09-29T10:52:08.408Z,55.35
2016-09-29T10:53:08.034Z,55.42
2016-09-29T10:54:07.565Z,54.90
2016-09-29T10:55:08.125Z,54.33
2016-09-29T10:56:07.694Z,55.54
2016-09-29T10:57:08.326Z,56.03
2016-09-29T10:58:07.954Z,55.37
2016-09-29T10:59:07.614Z,55.30
2016-09-29T11:00:08.171Z,56.11
2016-09-29T11:01:07.733Z,56.12
2016-09-29T11:02:08.313Z,56.22
2016-09-29T11:03:07.825Z,56.06
2016-09-29T11:04:08.474Z,56.43
2016-09-29T11:05:08.067Z,56.96
2016-09-29T11:06:07.575Z,56.34
2016-09-29T11:07:08.110Z,56.40
2016-09-29T11:08:07.685Z,56.11
2016-09-29T11:09:08.323Z,55.09
2016-09-29T11:10:07.875Z,55.90
2016-09-29T11:11:08.425Z,55.23
2016-09-29T11:12:08.019Z,55.84
2016-09-29T11:13:07.687Z,56.46
2016-09-29T11:14:08.298Z,56.40
2016-09-29T11:15:07.903Z,56.17
2016-09-29T11:16:08.543Z,56.25
2016-09-29T11:17:08.441Z,54.87
2016-09-29T11:18:08.130Z,55.74
2016-09-29T11:19:07.662Z,55.28
2016-09-29T11:20:08.315Z,54.84
2016-09-29T11:21:07.881Z,54.89
2016-09-29T11:22:08.450Z,55.52
2016-09-29T11:23:07.971Z,55.41
2016-09-29T11:24:07.439Z,54.93
2016-09-29T11:25:08.039Z,55.28
2016-09-29T11:26:07.607Z,54.07
2016-09-29T11:27:08.223Z,54.97
2016-09-29T11:28:07.755Z,55.24
2016-09-29T11:29:08.363Z,53.83
2016-09-29T11:30:07.946Z,54.38
2016-09-29T11:31:07.612Z,55.58
2016-09-29T11:32:08.189Z,55.15
2016-09-29T11:33:07.762Z,54.47
2016-09-29T11:34:08.307Z,54.53
2016-09-29T11:35:07.894Z,54.27
2016-09-29T11:36:08.523Z,53.76
2016-09-29T11:37:08.029Z,54.87
2016-09-29T11:38:07.570Z,53.26
2016-09-29T11:39:08.140Z,53.12
2016-09-29T11:40:07.654Z,52.28
2016-09-29T11:41:08.215Z,51.69
2016-09-29T11:42:07.842Z,52.07
2016-09-29T11:43:08.676Z,51.50
2016-09-29T11:44:08.246Z,52.36
2016-09-29T11:45:07.882Z,52.72
2016-09-29T11:46:08.492Z,53.50
2016-09-29T11:47:07.959Z,53.74
2016-09-29T11:48:07.605Z,53.18
2016-09-29T11:49:08.071Z,51.12
2016-09-29T11:50:07.618Z,52.29
2016-09-29T11:51:08.095Z,52.18
2016-09-29T11:52:07.583Z,52.06
2016-09-29T11:53:08.172Z,52.45
2016-09-29T11:54:07.728Z,52.79
2016-09-29T11:55:08.370Z,53.42
2016-09-29T11:56:07.868Z,52.60
2016-09-29T11:57:08.433Z,50.14
2016-09-29T11:58:08.023Z,50.73
2016-09-29T11:59:07.522Z,51.61
2016-09-29T12:00:08.088Z,50.36
2016-09-29T12:01:07.694Z,51.72
2016-09-29T12:02:08.241Z,50.13
2016-09-29T12:03:07.706Z,49.63
2016-09-29T12:04:08.260Z,51.26
2016-09-29T12:05:07.855Z,49.71
2016-09-29T12:06:08.411Z,50.44
2016-09-29T12:07:08.056Z,49.89
2016-09-29T12:08:07.525Z,49.50
2016-09-29T12:09:08.081Z,49.37
2016-09-29T12:10:07.584Z,49.21
2016-09-29T12:11:08.145Z,49.21
2016-09-29T12:12:07.712Z,49.45
2016-09-29T12:13:08.243Z,50.03
2016-09-29T12:14:07.812Z,49.36
2016-09-29T12:15:08.375Z,48.52
2016-09-29T12:16:07.935Z,48.56
2016-09-29T12:17:07.513Z,48.38
2016-09-29T12:18:08.074Z,48.72
2016-09-29T12:19:07.572Z,48.86
2016-09-29T12:20:08.097Z,49.68
2016-09-29T12:21:07.612Z,49.83
2016-09-29T12:22:08.191Z,49.83
2016-09-29T12:23:07.663Z,50.74
2016-09-29T12:24:08.310Z,49.88
2016-09-29T12:25:07.923Z,49.56
2016-09-29T12:26:08.501Z,50.70
2016-09-29T12:27:08.071Z,50.64
2016-09-29T12:28:07.614Z,50.89
2016-09-29T12:29:08.127Z,50.19
2016-09-29T12:30:07.696Z,50.74
2016-09-29T12:31:08.279Z,50.71
2016-09-29T12:32:07.857Z,51.38
2016-09-29T12:33:08.412Z,50.83
2016-09-29T12:34:08.033Z,50.35
2016-09-29T12:35:07.568Z,50.99
2016-09-29T12:36:08.503Z,52.50
2016-09-29T12:37:08.151Z,50.29
2016-09-29T12:38:07.725Z,49.58
2016-09-29T12:39:08.245Z,51.09
2016-09-29T12:40:07.831Z,52.82
2016-09-29T12:41:08.417Z,51.88
2016-09-29T12:42:08.035Z,49.62
2016-09-29T12:43:07.616Z,47.94
2016-09-29T12:44:08.146Z,49.49
2016-09-29T12:45:07.773Z,50.59
2016-09-29T12:46:08.393Z,51.01
2016-09-29T12:47:07.952Z,50.29
2016-09-29T12:48:07.449Z,49.73
2016-09-29T12:49:08.041Z,49.80
2016-09-29T12:50:07.587Z,49.88
2016-09-29T12:51:08.136Z,48.38
2016-09-29T12:52:07.700Z,50.10